Time;durP1;ratioP1;P1;durP2;ratioP2;P2;SDS_P1;SDS_P2;PMS_P1;PMS_P2;Temp;Humidity;BMP_temperature;BMP_pressure;BME280_temperature;BME280_humidity;BME280_pressure;Samples;Min_cycle;Max_cycle;Signal;HPM_P1;HPM_P2
2023/06/22 00:01:34;;;;;;;15.43;14.03;;;20.20;99.90;;;;;;5033540;28;21024;-70
2023/06/22 00:04:03;;;;;;;15.40;14.10;;;20.10;99.90;;;;;;5034233;28;20518;-72
2023/06/22 00:06:31;;;;;;;14.97;13.57;;;20.10;99.90;;;;;;5033594;28;21006;-71
2023/06/22 00:08:59;;;;;;;16.00;14.50;;;20.10;99.90;;;;;;5033574;28;20459;-71
2023/06/22 00:11:27;;;;;;;15.57;14.27;;;20.10;99.90;;;;;;5032201;28;20940;-71
2023/06/22 00:13:55;;;;;;;14.10;12.60;;;20.00;99.90;;;;;;5033481;28;20447;-71
2023/06/22 00:16:25;;;;;;;16.60;14.90;;;20.00;99.90;;;;;;5033905;28;20436;-71
2023/06/22 00:18:53;;;;;;;15.57;14.17;;;20.00;99.90;;;;;;5033654;28;20899;-71
2023/06/22 00:21:21;;;;;;;16.90;15.30;;;20.00;99.90;;;;;;5033715;28;20442;-71
2023/06/22 00:23:49;;;;;;;16.93;15.43;;;19.90;99.90;;;;;;5033658;28;20450;-71
2023/06/22 00:26:17;;;;;;;16.90;15.20;;;19.90;99.90;;;;;;5033394;28;20845;-71
2023/06/22 00:28:45;;;;;;;16.93;15.23;;;19.90;99.90;;;;;;5033293;28;20455;-71
2023/06/22 00:31:14;;;;;;;16.17;14.47;;;19.90;99.90;;;;;;5033793;28;20882;-71
2023/06/22 00:33:43;;;;;;;15.67;14.17;;;19.80;99.90;;;;;;5035396;28;20442;-71
2023/06/22 00:36:13;;;;;;;17.63;15.93;;;19.80;99.90;;;;;;5036018;28;20481;-71
2023/06/22 00:38:41;;;;;;;17.00;15.57;;;19.80;99.90;;;;;;5036473;28;20512;-70
2023/06/22 00:41:09;;;;;;;18.30;16.60;;;19.80;99.90;;;;;;5036044;28;20479;-71
2023/06/22 00:43:37;;;;;;;16.30;14.80;;;19.80;99.90;;;;;;5035984;28;20450;-71
2023/06/22 00:46:06;;;;;;;17.07;15.57;;;19.80;99.90;;;;;;5037183;28;20431;-71
2023/06/22 00:48:36;;;;;;;16.80;15.30;;;19.70;99.90;;;;;;5035939;28;20882;-71
2023/06/22 00:51:06;;;;;;;14.87;13.37;;;19.70;99.90;;;;;;5037564;28;20420;-71
2023/06/22 00:53:37;;;;;;;18.83;17.10;;;19.70;99.90;;;;;;5035915;28;20446;-71
2023/06/22 00:56:06;;;;;;;17.80;16.10;;;19.70;99.90;;;;;;5035768;28;20470;-71
2023/06/22 00:58:37;;;;;;;19.23;17.37;;;19.70;99.90;;;;;;5037204;28;20485;-71
2023/06/22 01:01:05;;;;;;;17.53;16.03;;;19.60;99.90;;;;;;5036987;28;21050;-71
2023/06/22 01:03:33;;;;;;;16.50;15.00;;;19.60;99.90;;;;;;5037030;28;20847;-71
2023/06/22 01:06:15;;;;;;;17.20;15.70;;;19.60;99.90;;;;;;5035691;28;20439;-71
2023/06/22 01:08:50;;;;;;;16.40;14.70;;;19.60;99.90;;;;;;5035539;28;20524;-71
2023/06/22 01:11:22;;;;;;;16.80;15.20;;;19.60;99.90;;;;;;5037132;28;20518;-71
2023/06/22 01:13:58;;;;;;;17.10;15.47;;;19.60;99.90;;;;;;5037018;28;20884;-71
2023/06/22 01:16:30;;;;;;;17.40;15.87;;;19.60;99.90;;;;;;5036809;28;20427;-71
2023/06/22 01:19:06;;;;;;;16.20;14.70;;;19.50;99.90;;;;;;5035317;28;20524;-71
2023/06/22 01:21:35;;;;;;;16.13;14.63;;;19.50;99.90;;;;;;5036819;28;20956;-71
2023/06/22 01:24:16;;;;;;;17.33;15.63;;;19.50;99.90;;;;;;5036629;28;20864;-71
2023/06/22 01:27:00;;;;;;;15.40;13.97;;;19.50;99.90;;;;;;5035512;28;20855;-71
2023/06/22 01:29:31;;;;;;;16.33;14.83;;;19.40;99.90;;;;;;5040163;28;20532;-71
2023/06/22 01:32:01;;;;;;;17.53;15.80;;;19.40;99.90;;;;;;5039202;28;20443;-71
2023/06/22 01:34:31;;;;;;;18.37;16.70;;;19.40;99.90;;;;;;5036398;28;20960;-71
2023/06/22 01:37:00;;;;;;;18.80;17.10;;;19.40;99.90;;;;;;5039591;28;20401;-71
2023/06/22 01:39:31;;;;;;;19.53;17.73;;;19.40;99.90;;;;;;5036933;28;20463;-71
2023/06/22 01:42:00;;;;;;;18.60;16.87;;;19.40;99.90;;;;;;5036152;28;20532;-71
2023/06/22 01:44:30;;;;;;;19.40;17.60;;;19.40;99.90;;;;;;5035102;28;20473;-71
2023/06/22 01:46:59;;;;;;;18.10;16.40;;;19.40;99.90;;;;;;5037352;28;20843;-71
2023/06/22 01:49:28;;;;;;;20.27;18.47;;;19.30;99.90;;;;;;5037406;28;20478;-71
2023/06/22 01:51:56;;;;;;;18.50;16.70;;;19.30;99.90;;;;;;5036090;28;21087;-71
2023/06/22 01:54:24;;;;;;;19.57;17.70;;;19.30;99.90;;;;;;5035049;28;21044;-71
2023/06/22 01:56:52;;;;;;;18.23;16.53;;;19.20;99.90;;;;;;5036191;28;20808;-71
2023/06/22 01:59:29;;;;;;;19.60;17.80;;;19.20;99.90;;;;;;5034872;28;20546;-71
2023/06/22 02:02:06;;;;;;;20.67;18.53;;;19.20;99.90;;;;;;5034807;28;21095;-71
2023/06/22 02:04:38;;;;;;;21.17;19.23;;;19.20;99.90;;;;;;5036162;28;20401;-71
2023/06/22 02:07:13;;;;;;;22.90;20.73;;;19.20;99.90;;;;;;5034740;28;20995;-71
2023/06/22 02:09:45;;;;;;;23.03;21.00;;;19.10;99.90;;;;;;5036135;28;20862;-71
2023/06/22 02:12:18;;;;;;;20.97;19.13;;;19.10;99.90;;;;;;5034531;28;20535;-71
2023/06/22 02:14:47;;;;;;;21.00;18.80;;;19.10;99.90;;;;;;5034667;28;20561;-70
2023/06/22 02:17:18;;;;;;;24.07;21.73;;;19.00;99.90;;;;;;5034304;28;20486;-71
2023/06/22 02:22:15;;;;;;;20.53;18.63;;;19.00;99.90;;;;;;5034308;28;20517;-71
2023/06/22 02:24:45;;;;;;;22.87;20.80;;;19.00;99.90;;;;;;5034331;28;20482;-71
2023/06/22 02:27:13;;;;;;;21.77;19.70;;;19.00;99.90;;;;;;5034272;28;20497;-71
2023/06/22 02:29:41;;;;;;;22.97;20.67;;;18.90;99.90;;;;;;5033946;28;20465;-71
2023/06/22 02:32:10;;;;;;;22.10;20.17;;;18.90;99.90;;;;;;5034216;28;20451;-71
2023/06/22 02:34:40;;;;;;;21.07;18.93;;;18.90;99.90;;;;;;5036134;28;20968;-70
2023/06/22 02:37:10;;;;;;;21.87;19.80;;;18.80;99.90;;;;;;5035559;28;20514;-71
2023/06/22 02:39:40;;;;;;;21.33;19.50;;;18.80;99.90;;;;;;5035671;28;20411;-71
2023/06/22 02:42:10;;;;;;;20.70;18.90;;;18.80;99.90;;;;;;5033848;28;20495;-71
2023/06/22 02:44:39;;;;;;;20.43;18.47;;;18.80;99.90;;;;;;5034216;28;20455;-71
2023/06/22 02:47:08;;;;;;;19.50;17.53;;;18.80;99.90;;;;;;5033791;28;20446;-71
2023/06/22 02:49:36;;;;;;;18.90;17.30;;;18.70;99.90;;;;;;5033587;28;20486;-71
2023/06/22 02:52:06;;;;;;;20.77;18.77;;;18.70;99.90;;;;;;5033714;28;20533;-70
2023/06/22 02:54:34;;;;;;;22.23;20.33;;;18.70;99.90;;;;;;5034888;28;20462;-71
2023/06/22 02:57:03;;;;;;;22.50;20.13;;;18.70;99.90;;;;;;5033131;28;20509;-71
2023/06/22 02:59:32;;;;;;;24.83;22.53;;;18.60;99.90;;;;;;5033445;28;20479;-71
2023/06/22 03:02:09;;;;;;;23.00;20.50;;;18.60;99.90;;;;;;5034279;28;20513;-71
2023/06/22 03:04:37;;;;;;;23.30;21.10;;;18.60;99.90;;;;;;5033283;28;20527;-70
2023/06/22 03:07:07;;;;;;;21.03;19.07;;;18.60;99.90;;;;;;5032975;28;20477;-71
2023/06/22 03:09:35;;;;;;;22.67;20.57;;;18.50;99.90;;;;;;5033151;28;20462;-71
2023/06/22 03:12:04;;;;;;;22.60;20.70;;;18.50;99.90;;;;;;5033608;28;20818;-71
2023/06/22 03:14:43;;;;;;;22.90;20.80;;;18.50;99.90;;;;;;5033437;28;20442;-71
2023/06/22 03:17:11;;;;;;;23.93;21.77;;;18.50;99.90;;;;;;5033018;28;20462;-71
2023/06/22 03:19:39;;;;;;;22.33;20.30;;;18.50;99.90;;;;;;5033037;28;20474;-71
2023/06/22 03:22:09;;;;;;;22.03;20.03;;;18.50;99.90;;;;;;5032984;28;20467;-71
2023/06/22 03:24:40;;;;;;;25.07;22.87;;;18.50;99.90;;;;;;5034222;28;20430;-71
2023/06/22 03:27:08;;;;;;;24.23;21.40;;;18.40;99.90;;;;;;5032953;28;20478;-71
2023/06/22 03:29:36;;;;;;;22.70;20.43;;;18.40;99.90;;;;;;5034176;28;20569;-71
2023/06/22 03:32:06;;;;;;;26.03;23.67;;;18.40;99.90;;;;;;5034495;28;20466;-71
2023/06/22 03:34:34;;;;;;;26.07;23.37;;;18.40;99.90;;;;;;5034872;28;20804;-71
2023/06/22 03:37:02;;;;;;;25.07;22.43;;;18.40;99.90;;;;;;5034280;28;20489;-71
2023/06/22 03:39:33;;;;;;;25.60;23.20;;;18.40;99.90;;;;;;5032742;28;20840;-71
2023/06/22 03:42:01;;;;;;;25.20;22.70;;;18.40;99.90;;;;;;5032772;28;20471;-71
2023/06/22 03:44:29;;;;;;;25.50;23.20;;;18.40;99.90;;;;;;5032747;28;20451;-71
2023/06/22 03:46:57;;;;;;;26.90;24.50;;;18.40;99.90;;;;;;5032582;28;20446;-70
2023/06/22 03:49:25;;;;;;;23.63;21.57;;;18.40;99.90;;;;;;5032501;28;20471;-71
2023/06/22 03:51:53;;;;;;;22.90;20.80;;;18.40;99.90;;;;;;5033777;28;20932;-71
2023/06/22 03:54:21;;;;;;;24.37;22.23;;;18.40;99.90;;;;;;5034027;28;20437;-71
2023/06/22 03:56:51;;;;;;;25.37;23.13;;;18.40;99.90;;;;;;5033727;28;20933;-71
2023/06/22 03:59:19;;;;;;;25.00;22.67;;;18.40;99.90;;;;;;5033660;28;20447;-70
2023/06/22 04:01:47;;;;;;;25.87;23.50;;;18.40;99.90;;;;;;5032503;28;20485;-71
2023/06/22 04:04:15;;;;;;;25.33;23.10;;;18.30;99.90;;;;;;5034037;28;20449;-70
2023/06/22 04:06:43;;;;;;;24.10;21.90;;;18.40;99.90;;;;;;5033830;28;20947;-71
2023/06/22 04:09:12;;;;;;;21.80;19.83;;;18.40;99.90;;;;;;5032765;28;20474;-71
2023/06/22 04:11:40;;;;;;;24.40;22.20;;;18.40;99.90;;;;;;5033645;28;20809;-71
2023/06/22 04:14:09;;;;;;;27.27;24.87;;;18.40;99.90;;;;;;5033539;28;20435;-70
2023/06/22 04:16:37;;;;;;;27.33;24.73;;;18.40;99.90;;;;;;5033906;28;20475;-71
2023/06/22 04:19:05;;;;;;;25.63;23.27;;;18.40;99.90;;;;;;5033371;28;20491;-71
2023/06/22 04:21:33;;;;;;;25.87;23.47;;;18.40;99.90;;;;;;5032203;28;20473;-70
2023/06/22 04:24:02;;;;;;;26.57;24.17;;;18.50;99.90;;;;;;5033506;28;20442;-71
2023/06/22 04:26:30;;;;;;;29.30;26.57;;;18.50;99.90;;;;;;5033416;28;20438;-71
2023/06/22 04:28:58;;;;;;;25.83;23.63;;;18.50;99.90;;;;;;5033708;28;20963;-71
2023/06/22 04:31:31;;;;;;;24.87;22.57;;;18.50;99.90;;;;;;5033949;28;20427;-70
2023/06/22 04:34:05;;;;;;;28.63;25.93;;;18.50;99.90;;;;;;5034025;28;20478;-70
2023/06/22 04:36:39;;;;;;;29.20;26.60;;;18.50;99.90;;;;;;5033544;28;20423;-70
2023/06/22 04:39:09;;;;;;;29.00;26.47;;;18.50;99.90;;;;;;5033457;28;20469;-70
2023/06/22 04:41:42;;;;;;;28.83;26.13;;;18.50;99.90;;;;;;5033750;28;20463;-70
2023/06/22 04:44:11;;;;;;;28.80;26.10;;;18.60;99.90;;;;;;5033495;28;20455;-70
2023/06/22 04:46:40;;;;;;;30.00;27.30;;;18.60;99.90;;;;;;5033349;28;20925;-70
2023/06/22 04:49:10;;;;;;;29.87;27.00;;;18.60;99.90;;;;;;5033155;28;20506;-70
2023/06/22 04:51:40;;;;;;;31.10;28.17;;;18.60;99.90;;;;;;5033339;28;20431;-70
2023/06/22 04:54:09;;;;;;;30.60;27.60;;;18.60;99.90;;;;;;5032710;28;20441;-70
2023/06/22 04:56:40;;;;;;;30.63;27.37;;;18.70;99.90;;;;;;5033587;28;20466;-70
2023/06/22 04:59:12;;;;;;;29.67;26.87;;;18.70;99.90;;;;;;5032944;28;20455;-70
2023/06/22 05:01:42;;;;;;;29.77;26.97;;;18.70;99.90;;;;;;5033259;28;20923;-70
2023/06/22 05:04:10;;;;;;;30.93;28.13;;;18.70;99.90;;;;;;5033225;28;20860;-70
2023/06/22 05:06:39;;;;;;;29.90;26.90;;;18.70;99.90;;;;;;5031921;28;20453;-70
2023/06/22 05:09:08;;;;;;;31.50;28.50;;;18.70;99.90;;;;;;5032864;28;20465;-70
2023/06/22 05:11:36;;;;;;;30.60;27.80;;;18.70;99.90;;;;;;5033361;28;20410;-71
2023/06/22 05:14:04;;;;;;;33.40;30.10;;;18.80;99.90;;;;;;5035140;28;20533;-71
2023/06/22 05:16:32;;;;;;;34.37;30.90;;;18.80;99.90;;;;;;5034350;28;20479;-71
2023/06/22 05:19:03;;;;;;;30.00;27.00;;;18.80;99.90;;;;;;5033863;28;20458;-71
2023/06/22 05:21:32;;;;;;;31.03;28.00;;;18.80;99.90;;;;;;5037390;28;20482;-70
2023/06/22 05:24:02;;;;;;;30.00;27.40;;;18.90;99.90;;;;;;5036498;28;20443;-71
2023/06/22 05:26:31;;;;;;;32.50;29.30;;;19.00;99.90;;;;;;5036749;28;20502;-71
2023/06/22 05:29:01;;;;;;;32.03;28.97;;;19.00;99.90;;;;;;5036080;28;20455;-71
2023/06/22 05:31:29;;;;;;;31.90;28.50;;;19.10;99.90;;;;;;5036701;28;20514;-72
2023/06/22 05:33:57;;;;;;;30.17;27.17;;;19.20;99.90;;;;;;5036572;28;20986;-71
2023/06/22 05:36:27;;;;;;;28.13;25.40;;;19.30;99.90;;;;;;5036383;28;20799;-71
2023/06/22 05:38:58;;;;;;;27.97;25.10;;;19.40;99.90;;;;;;5036011;28;20482;-72
2023/06/22 05:41:26;;;;;;;26.60;23.90;;;19.40;99.90;;;;;;5036884;28;20506;-71
2023/06/22 05:43:54;;;;;;;28.73;25.83;;;19.50;99.90;;;;;;5036102;28;20558;-72
2023/06/22 05:46:22;;;;;;;28.17;25.20;;;19.60;99.90;;;;;;5036635;28;20517;-71
2023/06/22 05:48:50;;;;;;;26.50;23.80;;;19.70;99.90;;;;;;5036160;28;20534;-71
2023/06/22 05:51:18;;;;;;;28.60;25.70;;;19.80;99.90;;;;;;5035995;28;20431;-71
2023/06/22 05:53:49;;;;;;;25.97;23.37;;;20.00;99.90;;;;;;5036192;28;20439;-71
2023/06/22 05:56:18;;;;;;;26.00;23.50;;;20.10;99.90;;;;;;5036471;28;20506;-71
2023/06/22 05:58:47;;;;;;;24.80;22.27;;;20.20;99.90;;;;;;5035792;28;20553;-71
2023/06/22 06:01:15;;;;;;;25.70;23.30;;;20.30;99.90;;;;;;5036133;28;20509;-71
2023/06/22 06:03:44;;;;;;;25.20;22.80;;;20.30;99.90;;;;;;5035790;28;20474;-71
2023/06/22 06:06:13;;;;;;;22.90;20.50;;;20.40;99.90;;;;;;5036191;28;20497;-71
2023/06/22 06:08:41;;;;;;;21.50;19.20;;;20.40;99.90;;;;;;5035799;28;20554;-71
2023/06/22 06:11:11;;;;;;;20.67;18.53;;;20.40;99.90;;;;;;5035800;28;21022;-72
2023/06/22 06:13:39;;;;;;;19.87;17.97;;;20.40;99.90;;;;;;5035571;28;20929;-71
2023/06/22 06:16:07;;;;;;;20.00;18.00;;;20.40;99.90;;;;;;5035800;28;20569;-71
2023/06/22 06:18:37;;;;;;;22.33;20.20;;;20.40;99.90;;;;;;5034201;28;20470;-71
2023/06/22 06:21:05;;;;;;;21.03;18.70;;;20.50;99.90;;;;;;5034279;28;20573;-71
2023/06/22 06:23:33;;;;;;;19.80;17.90;;;20.60;99.90;;;;;;5035672;28;20979;-71
2023/06/22 06:26:02;;;;;;;19.63;17.73;;;20.70;99.90;;;;;;5035686;28;20492;-71
2023/06/22 06:28:31;;;;;;;17.93;16.17;;;20.90;99.90;;;;;;5035174;28;20960;-71
2023/06/22 06:30:59;;;;;;;18.40;16.63;;;21.10;99.90;;;;;;5034482;28;20461;-71
2023/06/22 06:33:28;;;;;;;19.70;17.57;;;21.30;99.90;;;;;;5035275;28;20518;-71
2023/06/22 06:35:56;;;;;;;19.43;17.53;;;21.50;99.90;;;;;;5035549;28;20474;-71
2023/06/22 06:38:24;;;;;;;17.37;15.00;;;21.60;99.90;;;;;;5033939;28;20467;-71
2023/06/22 06:40:52;;;;;;;17.37;14.90;;;21.80;99.90;;;;;;5035035;28;20859;-71
2023/06/22 06:43:20;;;;;;;19.00;16.93;;;21.90;99.90;;;;;;5035385;28;20489;-71
2023/06/22 06:45:50;;;;;;;18.13;16.37;;;22.10;99.90;;;;;;5035029;28;20450;-71
2023/06/22 06:48:19;;;;;;;18.43;16.63;;;22.20;99.90;;;;;;5034951;28;20497;-72
2023/06/22 06:50:47;;;;;;;18.70;16.90;;;22.30;99.90;;;;;;5035072;28;21030;-72
2023/06/22 06:53:16;;;;;;;18.73;16.60;;;22.40;99.90;;;;;;5035164;28;20936;-72
2023/06/22 06:55:45;;;;;;;19.03;17.10;;;22.60;99.90;;;;;;5034811;28;20530;-71
2023/06/22 06:58:13;;;;;;;19.53;17.70;;;22.70;99.90;;;;;;5034751;28;20558;-71
2023/06/22 07:00:41;;;;;;;21.27;19.20;;;22.80;99.90;;;;;;5035188;28;20466;-71
2023/06/22 07:03:11;;;;;;;19.90;17.40;;;22.90;99.90;;;;;;5033369;28;20538;-71
2023/06/22 07:05:39;;;;;;;18.67;16.77;;;22.90;99.90;;;;;;5034826;28;20489;-71
2023/06/22 07:08:07;;;;;;;19.63;17.53;;;23.00;99.90;;;;;;5034285;28;20463;-71
2023/06/22 07:10:35;;;;;;;19.80;17.90;;;23.10;99.90;;;;;;5037260;28;20434;-71
2023/06/22 07:13:03;;;;;;;20.90;19.00;;;23.20;99.90;;;;;;5037110;28;20435;-71
2023/06/22 07:15:31;;;;;;;17.93;16.13;;;23.30;99.90;;;;;;5037064;28;20843;-71
2023/06/22 07:18:00;;;;;;;19.30;17.50;;;23.30;99.90;;;;;;5036695;28;20823;-71
2023/06/22 07:20:29;;;;;;;18.90;16.90;;;23.40;99.90;;;;;;5037495;28;20446;-71
2023/06/22 07:22:59;;;;;;;18.80;17.00;;;23.50;99.90;;;;;;5037717;28;20475;-72
2023/06/22 07:25:27;;;;;;;17.57;15.77;;;23.50;99.90;;;;;;5036545;28;20450;-72
2023/06/22 07:28:01;;;;;;;20.00;18.10;;;23.60;99.90;;;;;;5038237;28;20498;-71
2023/06/22 07:30:30;;;;;;;17.70;15.80;;;23.70;99.90;;;;;;5036419;28;20444;-72
2023/06/22 07:33:03;;;;;;;17.10;15.40;;;23.80;99.90;;;;;;5035923;28;20473;-72
2023/06/22 07:35:33;;;;;;;20.10;17.70;;;23.90;99.90;;;;;;5036441;28;20416;-72
2023/06/22 07:38:01;;;;;;;19.40;17.30;;;24.00;99.90;;;;;;5036743;28;20455;-72
2023/06/22 07:40:33;;;;;;;17.20;15.70;;;24.10;99.90;;;;;;5037772;28;20419;-72
2023/06/22 07:43:02;;;;;;;16.53;14.77;;;24.20;99.90;;;;;;5037716;28;20454;-72
2023/06/22 07:45:33;;;;;;;16.53;14.93;;;24.30;99.90;;;;;;5036487;28;20446;-72
2023/06/22 07:48:01;;;;;;;18.20;16.37;;;24.40;99.90;;;;;;5036622;28;20537;-72
2023/06/22 07:50:31;;;;;;;17.43;15.83;;;24.50;99.90;;;;;;5034883;28;20446;-73
2023/06/22 07:53:00;;;;;;;17.93;15.90;;;24.60;99.90;;;;;;5036166;28;20443;-72
2023/06/22 07:55:29;;;;;;;17.60;15.67;;;24.60;99.90;;;;;;5036754;28;20880;-73
2023/06/22 07:57:58;;;;;;;16.20;14.70;;;24.60;99.90;;;;;;5037110;28;20492;-72
2023/06/22 08:00:26;;;;;;;14.80;13.30;;;24.70;99.90;;;;;;5036380;28;20435;-72
2023/06/22 08:02:54;;;;;;;14.80;13.30;;;24.70;99.90;;;;;;5036392;28;20442;-72
2023/06/22 08:05:23;;;;;;;15.10;13.50;;;24.70;99.90;;;;;;5037666;28;20905;-72
2023/06/22 08:07:51;;;;;;;14.40;12.90;;;24.80;99.90;;;;;;5036215;28;20537;-73
2023/06/22 08:10:21;;;;;;;14.07;12.70;;;24.80;99.90;;;;;;5051885;28;20521;-71
2023/06/22 08:12:49;;;;;;;12.90;11.50;;;24.90;99.90;;;;;;5036126;28;20927;-72
2023/06/22 08:15:17;;;;;;;16.40;14.80;;;24.90;99.90;;;;;;5036201;28;20431;-72
2023/06/22 08:17:45;;;;;;;12.43;11.23;;;25.00;99.90;;;;;;5036642;28;20496;-71
2023/06/22 08:20:14;;;;;;;11.73;10.53;;;25.00;99.90;;;;;;5037852;28;20479;-71
2023/06/22 08:22:43;;;;;;;14.17;12.87;;;25.10;99.90;;;;;;5036364;28;20521;-72
2023/06/22 08:25:13;;;;;;;14.80;11.70;;;25.10;99.90;;;;;;5037006;28;20493;-72
2023/06/22 08:27:46;;;;;;;13.83;11.90;;;25.20;99.90;;;;;;5035993;28;20963;-72
2023/06/22 08:30:14;;;;;;;13.37;11.97;;;25.30;99.90;;;;;;5035184;28;20948;-72
2023/06/22 08:32:43;;;;;;;14.90;13.47;;;25.30;99.90;;;;;;5034408;28;20443;-72
2023/06/22 08:35:11;;;;;;;13.70;12.27;;;25.50;99.90;;;;;;5035025;28;20437;-72
2023/06/22 08:37:39;;;;;;;12.80;11.60;;;25.50;99.90;;;;;;5035483;28;20537;-72
2023/06/22 08:40:10;;;;;;;13.00;11.73;;;25.60;99.90;;;;;;5035288;28;21040;-72
2023/06/22 08:42:41;;;;;;;13.17;11.97;;;25.60;99.90;;;;;;5035484;28;20474;-72
2023/06/22 08:45:12;;;;;;;11.63;10.43;;;25.60;99.90;;;;;;5035355;28;20455;-73
2023/06/22 08:47:40;;;;;;;11.50;9.63;;;25.70;99.90;;;;;;5035782;28;20478;-72
2023/06/22 08:50:10;;;;;;;10.07;8.40;;;25.70;99.90;;;;;;5034468;28;20998;-72
2023/06/22 08:52:41;;;;;;;12.53;10.37;;;25.80;99.90;;;;;;5034890;28;20526;-72
2023/06/22 08:55:10;;;;;;;12.00;10.70;;;25.90;99.90;;;;;;5037512;28;20419;-73
2023/06/22 08:57:39;;;;;;;9.00;8.10;;;25.90;99.90;;;;;;5039010;28;20479;-72
2023/06/22 09:00:16;;;;;;;10.23;8.97;;;25.90;99.90;;;;;;5039009;28;20985;-72
2023/06/22 09:02:46;;;;;;;9.33;8.33;;;26.00;99.90;;;;;;5039141;28;20425;-72
2023/06/22 09:05:15;;;;;;;11.40;9.47;;;26.10;99.90;;;;;;5038956;28;20562;-73
2023/06/22 09:07:44;;;;;;;9.53;8.10;;;26.20;99.90;;;;;;5039271;28;20497;-72
2023/06/22 09:10:12;;;;;;;9.30;7.83;;;26.20;99.90;;;;;;5039357;28;20446;-72
2023/06/22 09:12:40;;;;;;;10.20;8.30;;;26.20;99.90;;;;;;5039759;28;20439;-72
2023/06/22 09:15:10;;;;;;;10.43;8.03;;;26.30;99.90;;;;;;5038899;28;20501;-72
2023/06/22 09:17:44;;;;;;;11.40;7.90;;;26.30;99.90;;;;;;5039206;28;20465;-72
2023/06/22 09:20:14;;;;;;;9.90;7.73;;;26.30;99.90;;;;;;5038891;28;20975;-72
2023/06/22 09:22:42;;;;;;;7.80;6.40;;;26.40;99.90;;;;;;5039742;28;20473;-72
2023/06/22 09:25:10;;;;;;;10.77;9.67;;;26.40;99.90;;;;;;5039046;28;20470;-73
2023/06/22 09:27:39;;;;;;;8.10;7.27;;;26.50;99.90;;;;;;5039191;28;20462;-72
2023/06/22 09:30:08;;;;;;;7.60;6.77;;;26.50;99.90;;;;;;5036771;28;20465;-73
2023/06/22 09:32:36;;;;;;;10.07;8.73;;;26.50;99.90;;;;;;5036086;28;20508;-72
2023/06/22 09:35:06;;;;;;;9.90;8.17;;;26.50;99.90;;;;;;5039583;28;20464;-73
2023/06/22 09:37:36;;;;;;;7.90;6.87;;;26.60;99.90;;;;;;5041292;28;20419;-73
2023/06/22 09:40:09;;;;;;;8.93;7.13;;;26.70;99.90;;;;;;5041704;28;20442;-72
2023/06/22 09:42:37;;;;;;;8.47;7.03;;;26.70;99.90;;;;;;5039834;28;20454;-73
2023/06/22 09:45:06;;;;;;;9.23;6.70;;;26.80;99.90;;;;;;5037903;28;20557;-73
2023/06/22 09:47:35;;;;;;;12.33;8.77;;;26.80;99.90;;;;;;5039228;28;20470;-73
2023/06/22 09:50:03;;;;;;;11.53;8.10;;;26.90;99.90;;;;;;5038852;28;20489;-72
2023/06/22 09:52:31;;;;;;;9.73;7.60;;;26.90;99.90;;;;;;5037232;28;20890;-73
2023/06/22 09:55:16;;;;;;;9.10;8.20;;;26.90;99.90;;;;;;5038712;28;20423;-72
2023/06/22 09:57:45;;;;;;;8.20;6.63;;;26.80;99.90;;;;;;5038589;28;20465;-72
2023/06/22 10:00:15;;;;;;;8.90;8.00;;;26.80;99.90;;;;;;5038203;28;20447;-72
2023/06/22 10:02:43;;;;;;;10.13;7.97;;;26.80;99.90;;;;;;5037155;28;20451;-72
2023/06/22 10:05:12;;;;;;;8.57;6.73;;;26.90;99.90;;;;;;5037678;28;20463;-73
2023/06/22 10:07:43;;;;;;;10.73;8.50;;;26.90;99.90;;;;;;5037603;28;20975;-72
2023/06/22 10:10:12;;;;;;;9.70;6.20;;;27.00;99.90;;;;;;5038952;28;20419;-73
2023/06/22 10:12:47;;;;;;;7.27;5.73;;;27.00;99.90;;;;;;5038745;28;20439;-72
2023/06/22 10:15:15;;;;;;;8.00;6.80;;;27.00;99.90;;;;;;5038244;28;20423;-73
2023/06/22 10:17:44;;;;;;;12.60;7.43;;;27.00;99.90;;;;;;5039078;28;20508;-73
2023/06/22 10:20:13;;;;;;;7.97;7.10;;;27.00;99.90;;;;;;5038532;28;20493;-73
2023/06/22 10:22:42;;;;;;;8.77;7.97;;;27.00;99.90;;;;;;5038977;28;20430;-72
2023/06/22 10:25:11;;;;;;;9.87;8.70;;;27.10;99.90;;;;;;5038519;28;20995;-73
2023/06/22 10:27:40;;;;;;;9.20;7.53;;;27.10;99.90;;;;;;5037800;28;20521;-72
2023/06/22 10:30:12;;;;;;;8.87;7.97;;;27.10;99.90;;;;;;5037676;28;20454;-73
2023/06/22 10:32:42;;;;;;;10.23;8.60;;;27.10;99.90;;;;;;5039173;28;20451;-72
2023/06/22 10:35:13;;;;;;;9.47;8.50;;;27.10;99.80;;;;;;5035773;28;20449;-72
2023/06/22 10:37:42;;;;;;;8.77;7.90;;;27.20;99.90;;;;;;5034794;28;20485;-72
2023/06/22 10:40:12;;;;;;;8.87;7.40;;;27.20;99.90;;;;;;5036538;28;20435;-75
2023/06/22 10:42:40;;;;;;;8.90;8.00;;;27.20;99.90;;;;;;5036182;28;20514;-72
2023/06/22 10:45:10;;;;;;;10.40;9.10;;;27.20;99.90;;;;;;5035911;28;20473;-73
2023/06/22 10:47:38;;;;;;;8.53;6.70;;;27.30;99.90;;;;;;5036227;28;20550;-73
2023/06/22 10:50:08;;;;;;;11.80;9.20;;;27.30;99.90;;;;;;5035695;28;20865;-72
2023/06/22 10:52:36;;;;;;;10.30;9.20;;;27.30;99.90;;;;;;5035979;28;20469;-73
2023/06/22 10:55:05;;;;;;;10.27;9.07;;;27.30;99.90;;;;;;5035836;28;20475;-72
2023/06/22 10:57:33;;;;;;;9.27;8.40;;;27.40;99.90;;;;;;5034394;28;20447;-73
2023/06/22 11:00:01;;;;;;;10.53;8.50;;;27.40;99.90;;;;;;5035545;28;20438;-73
2023/06/22 11:02:30;;;;;;;10.17;9.17;;;27.50;99.90;;;;;;5034747;28;20936;-72
2023/06/22 11:05:00;;;;;;;8.67;7.87;;;27.50;99.90;;;;;;5035236;28;20490;-73
2023/06/22 11:07:28;;;;;;;10.03;9.03;;;27.60;99.90;;;;;;5034704;28;20446;-74
2023/06/22 11:09:56;;;;;;;10.63;9.53;;;27.60;99.70;;;;;;5034651;28;20509;-73
2023/06/22 11:12:24;;;;;;;9.50;8.60;;;27.70;99.60;;;;;;5034774;28;20457;-73
2023/06/22 11:14:53;;;;;;;8.27;7.23;;;27.70;99.60;;;;;;5034776;28;20808;-72
2023/06/22 11:17:21;;;;;;;9.73;8.43;;;27.70;99.60;;;;;;5034033;28;20937;-73
2023/06/22 11:19:50;;;;;;;8.50;7.70;;;27.70;99.60;;;;;;5034491;28;20987;-72
2023/06/22 11:22:18;;;;;;;9.70;8.70;;;27.70;99.60;;;;;;5033087;28;20795;-73
2023/06/22 11:24:46;;;;;;;10.03;8.90;;;27.70;99.50;;;;;;5035313;28;20454;-73
2023/06/22 11:27:15;;;;;;;10.57;9.30;;;27.70;99.50;;;;;;5034774;28;20522;-73
2023/06/22 11:29:43;;;;;;;11.30;8.93;;;27.70;99.40;;;;;;5034198;28;20853;-74
2023/06/22 11:32:11;;;;;;;11.03;9.00;;;27.70;99.20;;;;;;5033096;28;20501;-73
2023/06/22 11:34:41;;;;;;;8.30;7.40;;;27.70;99.20;;;;;;5034549;28;20766;-73
2023/06/22 11:37:11;;;;;;;10.10;9.03;;;27.70;99.20;;;;;;5034036;28;20907;-73
2023/06/22 11:39:39;;;;;;;8.40;7.60;;;27.80;99.20;;;;;;5034191;28;20458;-72
2023/06/22 11:42:15;;;;;;;9.30;8.40;;;27.80;99.20;;;;;;5034566;28;20840;-73
2023/06/22 11:44:43;;;;;;;9.30;7.87;;;27.80;99.10;;;;;;5033854;28;20443;-73
2023/06/22 11:47:12;;;;;;;8.83;7.93;;;27.90;99.10;;;;;;5033813;28;20550;-73
2023/06/22 11:49:40;;;;;;;9.53;7.77;;;28.00;99.10;;;;;;5033745;28;20462;-73
2023/06/22 11:52:08;;;;;;;8.70;7.80;;;28.10;99.10;;;;;;5034086;28;20887;-73
2023/06/22 11:54:38;;;;;;;8.60;7.70;;;28.10;99.00;;;;;;5033791;28;20530;-72
2023/06/22 11:57:06;;;;;;;9.60;8.23;;;28.10;98.90;;;;;;5033980;28;20439;-72
2023/06/22 11:59:34;;;;;;;7.90;6.90;;;28.10;98.80;;;;;;5033584;28;20454;-73
2023/06/22 12:02:03;;;;;;;9.00;7.80;;;28.10;98.80;;;;;;5033679;28;20470;-72
2023/06/22 12:04:31;;;;;;;8.90;7.80;;;28.10;98.80;;;;;;5034199;28;20553;-73
2023/06/22 12:06:59;;;;;;;9.80;8.37;;;28.10;98.70;;;;;;5033342;28;20462;-73
2023/06/22 12:09:27;;;;;;;10.03;8.37;;;28.10;98.60;;;;;;5033371;28;20474;-73
2023/06/22 12:11:57;;;;;;;8.27;7.47;;;28.10;98.90;;;;;;5033485;28;20936;-73
2023/06/22 12:14:25;;;;;;;8.53;7.63;;;28.10;98.60;;;;;;5033743;28;20434;-72
2023/06/22 12:16:53;;;;;;;7.63;6.90;;;28.10;98.60;;;;;;5033371;28;20439;-73
2023/06/22 12:19:21;;;;;;;8.27;7.40;;;28.20;98.60;;;;;;5032089;28;21026;-73
2023/06/22 12:21:49;;;;;;;7.97;7.17;;;28.20;98.50;;;;;;5032132;28;20486;-73
2023/06/22 12:24:17;;;;;;;9.13;8.10;;;28.20;98.50;;;;;;5033505;28;21020;-73
2023/06/22 12:26:45;;;;;;;7.97;6.43;;;28.20;98.70;;;;;;5033764;28;20463;-73
2023/06/22 12:29:15;;;;;;;10.70;8.10;;;28.20;98.50;;;;;;5032365;28;20467;-73
2023/06/22 12:31:43;;;;;;;8.90;8.00;;;28.20;98.30;;;;;;5032149;28;20477;-73
2023/06/22 12:34:11;;;;;;;9.53;8.33;;;28.20;98.10;;;;;;5033433;28;20427;-73
2023/06/22 12:36:39;;;;;;;8.40;7.50;;;28.20;98.00;;;;;;5033260;28;20483;-73
2023/06/22 12:39:07;;;;;;;8.30;7.40;;;28.10;98.00;;;;;;5033167;28;20470;-73
2023/06/22 12:41:35;;;;;;;7.90;7.10;;;28.10;98.00;;;;;;5033545;28;20435;-73
2023/06/22 12:44:04;;;;;;;8.30;7.50;;;28.00;98.00;;;;;;5033273;28;20588;-73
2023/06/22 12:46:37;;;;;;;9.13;7.00;;;28.10;98.00;;;;;;5033114;28;20475;-73